Latest Weather Observations for Witchcliffe

IDW60801

Issued at 10:05 am WST Saturday 29 November 2014 (issued every 30 minutes, with the page automatically refreshed every 10 minutes)

About weather observations | Map of weather stations | Latest weather observations for WA | Other Formats
Station Details ID: 009746 Name: WITCHCLIFFE Lat: -34.03 Lon: 115.10 Height: 80.0 m
Data from the previous 72 hours. | See also: Recent months at Witchcliffe
Date/Time
WST
Temp
°C
App
Temp
°C
Dew
Point
Rel
Hum
%
Delta-T
°C
Wind Press
QNH
hPa
Press
MSL
hPa
Rain
since 9 am
mm
Dir
 
Spd
km/h
Gust
km/h
Spd
kts
Gust
kts
29/10:00am 17.6 14.9 10.5 63 3.8 SSE 15 22 8 12 1016.4 1016.3 0.0
29/09:30am 17.0 14.6 11.5 70 3.0 S 15 22 8 12 1016.4 1016.3 0.0
29/09:00am 17.2 14.3 11.0 67 3.3 S 17 26 9 14 1016.2 1016.1 0.6
29/08:30am 16.7 14.0 11.6 72 2.8 S 17 24 9 13 1016.3 1016.2 0.6
29/08:00am 16.1 13.7 11.5 74 2.5 S 15 24 8 13 1016.2 1016.1 0.6
29/07:30am 16.2 15.0 12.7 80 1.9 S 11 19 6 10 1016.2 1016.1 0.6
29/07:00am 15.7 14.3 12.3 80 1.9 SSW 11 15 6 8 1016.0 1015.9 0.6
29/06:30am 15.6 14.8 12.9 84 1.5 S 9 15 5 8 1015.9 1015.8 0.6
29/06:00am 15.2 14.8 13.1 87 1.2 S 7 11 4 6 1015.6 1015.5 0.6
29/05:30am 15.0 14.1 12.7 86 1.3 S 9 13 5 7 1015.4 1015.3 0.6
29/05:00am 15.0 14.1 12.7 86 1.3 S 9 13 5 7 1015.3 1015.2 0.6
29/04:30am 15.0 14.2 12.9 87 1.2 SSW 9 13 5 7 1015.1 1015.0 0.6
29/04:00am 15.1 13.6 13.1 88 1.1 S 13 20 7 11 1014.9 1014.8 0.6
29/03:30am 15.1 14.5 14.5 96 0.3 S 11 17 6 9 1014.7 1014.6 0.6
29/03:00am 14.9 14.7 14.7 99 0.1 S 9 13 5 7 1014.6 1014.5 0.6
29/02:30am 14.8 14.3 14.8 100 0.0 SSW 11 17 6 9 1014.5 1014.4 0.6
29/02:00am 14.7 14.1 14.7 100 0.0 S 11 19 6 10 1014.5 1014.4 0.6
29/01:30am 14.7 14.1 14.7 100 0.0 S 11 17 6 9 1014.6 1014.5 0.6
29/01:00am 14.8 13.5 14.8 100 0.0 SSW 15 20 8 11 1014.7 1014.6 0.6
29/12:30am 14.8 13.9 14.8 100 0.0 S 13 20 7 11 1014.5 1014.4 0.6
29/12:00am 14.8 14.3 14.8 100 0.0 S 11 13 6 7 1014.7 1014.6 0.6
 
Date/Time
WST
Temp
°C
App
Temp
°C
Dew
Point
Rel
Hum
%
Delta-T
°C
Wind Press
QNH
hPa
Press
MSL
hPa
Rain
since 9 am
mm
Dir
 
Spd
km/h
Gust
km/h
Spd
kts
Gust
kts
28/11:30pm 14.8 13.9 14.8 100 0.0 S 13 20 7 11 1014.9 1014.8 0.6
28/11:00pm 14.9 14.0 14.9 100 0.0 S 13 22 7 12 1015.0 1014.9 0.4
28/10:30pm 14.9 14.8 14.9 100 0.0 S 9 15 5 8 1015.1 1015.0 0.4
28/10:00pm 15.1 14.3 15.1 100 0.0 S 13 19 7 10 1015.2 1015.1 0.4
28/09:30pm 15.1 14.3 15.1 100 0.0 S 13 19 7 10 1015.2 1015.1 0.4
28/09:00pm 15.1 14.3 15.1 100 0.0 S 13 20 7 11 1015.1 1015.0 0.4
28/08:30pm 15.3 14.6 15.3 100 0.0 S 13 22 7 12 1014.7 1014.6 0.4
28/08:00pm 15.4 14.3 15.4 100 0.0 S 15 28 8 15 1014.6 1014.5 0.4
28/07:30pm 15.6 14.6 15.6 100 0.0 S 15 22 8 12 1014.3 1014.2 0.4
28/07:00pm 15.7 14.4 15.7 100 0.0 S 17 24 9 13 1014.0 1013.9 0.4
28/06:30pm 15.9 14.6 15.9 100 0.0 S 17 26 9 14 1013.8 1013.7 0.4
28/06:00pm 16.2 15.4 16.2 100 0.0 S 15 22 8 12 1013.8 1013.7 0.2
28/05:30pm 16.4 14.8 16.4 100 0.0 SSW 20 28 11 15 1013.5 1013.4 0.2
28/05:00pm 16.8 15.5 16.8 100 0.0 SSW 19 26 10 14 1013.2 1013.1 0.2
28/04:30pm 17.3 16.1 17.1 99 0.1 SSW 19 26 10 14 1012.7 1012.6 0.2
28/04:00pm 17.4 15.9 16.8 96 0.4 SSW 20 28 11 15 1012.5 1012.4 0.2
28/03:30pm 18.3 16.8 16.3 88 1.2 SSW 19 28 10 15 1012.1 1012.0 0.2
28/03:00pm 18.4 16.9 16.7 90 1.0 SSW 20 30 11 16 1012.1 1012.0 0.2
28/02:30pm 18.3 16.9 17.1 93 0.7 SSW 20 30 11 16 1011.9 1011.7 0.2
28/02:00pm 17.9 17.0 17.7 99 0.1 SSW 19 26 10 14 1011.9 1011.7 0.2
28/01:30pm 18.7 17.7 17.9 95 0.5 SSW 20 28 11 15 1011.9 1011.7 0.2
28/01:00pm 18.9 18.3 18.4 97 0.3 SSW 19 26 10 14 1011.8 1011.6 0.2
28/12:30pm 20.0 18.5 16.8 82 1.9 SSW 20 30 11 16 1011.6 1011.4 0.2
28/12:00pm 19.3 18.2 16.3 83 1.8 S 17 28 9 15 1011.5 1011.3 0.2
28/11:30am 20.0 17.7 15.6 76 2.6 SSW 22 32 12 17 1011.4 1011.2 0.2
28/11:00am 20.1 18.3 16.1 78 2.4 SSW 20 30 11 16 1011.3 1011.1 0.2
28/10:30am 20.0 18.0 15.6 76 2.6 SSW 20 33 11 18 1011.2 1011.0 0.2
28/10:00am 20.1 18.2 15.7 76 2.6 SSW 20 28 11 15 1010.9 1010.7 0.2
28/09:30am 20.8 19.5 15.8 73 3.0 SW 17 24 9 13 1010.9 1010.7 0.0
28/09:00am 20.9 20.4 15.9 73 3.0 S 13 24 7 13 1010.8 1010.6 6.6
28/08:30am 20.5 20.1 16.3 77 2.5 SSW 13 19 7 10 1010.9 1010.7 6.6
28/08:00am 19.4 19.1 16.4 83 1.8 SSW 13 19 7 10 1011.1 1010.9 6.6
28/07:30am 18.9 19.7 18.1 95 0.5 SSW 11 17 6 9 1011.2 1011.0 6.6
28/07:00am 18.2 18.5 18.0 99 0.1 SSW 13 20 7 11 1011.1 1010.9 6.6
28/06:30am 18.0 19.1 18.0 100 0.0 SW 9 17 5 9 1011.1 1010.9 6.6
28/06:00am 17.7 18.7 17.7 100 0.0 SSW 9 13 5 7 1011.1 1010.9 6.6
28/05:30am 17.5 19.3 17.5 100 0.0 SW 4 11 2 6 1010.9 1010.7 6.6
28/05:00am 17.4 20.0 17.4 100 0.0 CALM 0 0 0 0 1010.8 1010.6 6.6
28/04:30am 17.4 18.8 17.4 100 0.0 SW 6 11 3 6 1010.5 1010.3 6.6
28/04:00am 17.5 19.0 17.5 100 0.0 WSW 6 9 3 5 1010.3 1010.1 6.6
28/03:30am 17.5 18.4 17.5 100 0.0 SW 9 13 5 7 1010.2 1010.0 6.6
28/03:00am 17.7 18.7 17.7 100 0.0 SSW 9 13 5 7 1010.1 1009.9 6.6
28/02:30am 17.8 20.1 17.8 100 0.0 SSW 2 13 1 7 1010.2 1010.0 6.6
28/02:00am 17.8 19.4 17.8 100 0.0 SW 6 9 3 5 1010.1 1009.9 6.6
28/01:30am 17.8 20.5 17.8 100 0.0 CALM 0 0 0 0 1010.1 1009.9 6.6
28/01:00am 17.7 19.1 17.7 100 0.0 SW 7 13 4 7 1010.1 1009.9 6.6
28/12:30am 17.6 18.9 17.6 100 0.0 SW 7 13 4 7 1010.1 1009.9 6.6
28/12:00am 17.9 20.3 17.9 100 0.0 SW 2 9 1 5 1010.3 1010.1 6.6
 
Date/Time
WST
Temp
°C
App
Temp
°C
Dew
Point
Rel
Hum
%
Delta-T
°C
Wind Press
QNH
hPa
Press
MSL
hPa
Rain
since 9 am
mm
Dir
 
Spd
km/h
Gust
km/h
Spd
kts
Gust
kts
27/11:30pm 18.3 20.1 18.3 100 0.0 S 6 7 3 4 1010.6 1010.4 6.6
27/11:00pm 18.3 20.1 18.3 100 0.0 SSE 6 9 3 5 1010.8 1010.6 6.6
27/10:30pm 18.3 19.5 18.3 100 0.0 SSE 9 13 5 7 1010.9 1010.7 6.6
27/10:00pm 18.2 19.0 18.2 100 0.0 SSE 11 17 6 9 1010.9 1010.7 6.6
27/09:30pm 18.2 19.4 18.2 100 0.0 SSE 9 13 5 7 1011.0 1010.8 6.6
27/09:00pm 18.1 18.5 18.1 100 0.0 SSE 13 19 7 10 1011.1 1010.9 6.6
27/08:30pm 18.3 18.8 18.3 100 0.0 SSE 13 19 7 10 1011.1 1010.9 6.6
27/08:00pm 18.3 19.1 18.1 99 0.1 S 11 15 6 8 1010.9 1010.7 6.6
27/07:30pm 18.9 19.0 17.4 91 0.9 S 13 20 7 11 1010.8 1010.6 6.6
27/07:00pm 19.8 20.9 17.0 84 1.7 SSW 7 13 4 7 1010.7 1010.5 6.6
27/06:30pm 21.6 22.0 16.3 72 3.2 WSW 9 15 5 8 1010.6 1010.4 6.6
27/06:00pm 22.4 22.8 16.4 69 3.7 SW 9 13 5 7 1010.1 1009.9 6.6
27/05:30pm 22.7 23.5 17.2 71 3.4 WSW 9 13 5 7 1010.1 1009.9 6.6
27/05:00pm 23.1 24.5 17.8 72 3.3 WSW 7 13 4 7 1010.6 1010.4 6.6
27/04:30pm 22.4 22.4 17.3 73 3.2 SW 13 20 7 11 1010.7 1010.5 6.6
27/04:00pm 21.7 23.2 19.8 89 1.2 W 11 19 6 10 1010.8 1010.6 6.6
27/03:30pm 20.2 21.8 20.0 99 0.1 SW 11 15 6 8 1010.9 1010.7 6.6
27/03:00pm 22.1 22.5 17.2 74 3.0 NNE 11 17 6 9 1011.0 1010.8 0.8
27/02:30pm 23.5 24.5 18.6 74 3.1 NE 11 17 6 9 1011.3 1011.1 0.8
27/02:00pm 23.3 24.2 18.4 74 3.1 NE 11 15 6 8 1011.3 1011.1 0.8
27/01:30pm 22.4 23.2 19.0 81 2.2 N 13 19 7 10 1011.5 1011.3 0.6
27/01:00pm 21.2 23.5 19.8 92 0.9 NE 7 11 4 6 1011.7 1011.5 0.6
27/12:30pm 20.5 23.7 20.5 100 0.0 E 4 9 2 5 1012.0 1011.8 0.6
27/12:00pm 19.1 21.1 19.1 100 0.0 NE 7 15 4 8 1012.3 1012.2 0.6
27/11:30am 18.9 20.4 18.9 100 0.0 E 9 13 5 7 1012.6 1012.5 0.2
27/11:00am 19.1 19.8 18.9 99 0.1 ENE 13 19 7 10 1012.7 1012.6 0.0
27/10:30am 20.0 21.5 18.1 89 1.2 NE 7 13 4 7 1013.2 1013.1 0.0
27/10:00am 20.5 20.6 17.5 83 1.8 E 13 22 7 12 1012.8 1012.7 0.0
27/09:30am 20.7 19.7 16.7 78 2.4 SE 17 24 9 13 1012.3 1012.2 0.0
27/09:00am 20.7 20.4 16.5 77 2.5 SE 13 17 7 9 1012.5 1012.4 6.2
27/08:30am 21.1 21.2 17.5 80 2.2 SSE 13 19 7 10 1012.6 1012.5 6.2
27/08:00am 19.2 19.0 17.5 90 1.0 SSE 15 19 8 10 1012.4 1012.3 6.2
27/07:30am 19.3 19.2 17.8 91 0.9 ESE 15 20 8 11 1012.8 1012.7 6.2
27/07:00am 18.0 18.3 17.8 99 0.1 SE 13 19 7 10 1012.7 1012.6 6.2
27/06:30am 17.5 18.0 17.5 100 0.0 SSE 11 19 6 10 1012.7 1012.6 6.2
27/06:00am 17.2 17.2 17.2 100 0.0 SSE 13 19 7 10 1012.7 1012.6 6.2
27/05:30am 17.2 17.1 17.0 99 0.1 SSE 13 17 7 9 1012.3 1012.2 6.2
27/05:00am 17.3 17.6 17.1 99 0.1 SSE 11 20 6 11 1012.1 1012.0 5.0
27/04:30am 17.4 17.9 16.6 95 0.5 SE 9 13 5 7 1012.0 1011.8 4.6
27/04:00am 17.4 17.7 15.9 91 0.9 SE 9 15 5 8 1011.4 1011.2 4.6
27/03:30am 18.0 18.4 16.2 89 1.1 ESE 9 13 5 7 1011.4 1011.2 4.6
27/03:00am 18.2 18.3 16.4 89 1.1 SE 11 19 6 10 1011.4 1011.2 4.6
27/02:30am 18.3 18.8 16.6 90 1.0 ESE 9 15 5 8 1011.5 1011.3 4.6
27/02:00am 18.3 18.8 16.6 90 1.0 ESE 9 13 5 7 1011.5 1011.3 4.6
27/01:30am 18.3 18.8 16.6 90 1.0 ESE 9 17 5 9 1011.4 1011.2 4.6
27/01:00am 18.2 18.3 16.5 90 1.0 ESE 11 19 6 10 1011.3 1011.1 4.6
27/12:30am 18.0 18.2 16.7 92 0.8 E 11 22 6 12 1011.6 1011.4 4.6
27/12:00am 17.9 17.5 16.2 90 1.0 SE 13 19 7 10 1011.0 1010.8 4.6
 
Date/Time
WST
Temp
°C
App
Temp
°C
Dew
Point
Rel
Hum
%
Delta-T
°C
Wind Press
QNH
hPa
Press
MSL
hPa
Rain
since 9 am
mm
Dir
 
Spd
km/h
Gust
km/h
Spd
kts
Gust
kts
26/11:30pm 17.7 17.7 16.2 91 0.9 SE 11 19 6 10 1011.1 1010.9 4.6
26/11:00pm 17.8 17.6 16.7 93 0.7 ESE 13 20 7 11 1011.4 1011.2 4.6
26/10:30pm 17.5 16.7 17.2 98 0.2 ESE 17 24 9 13 1011.9 1011.7 4.6
26/10:00pm 17.5 17.5 17.3 99 0.1 ESE 13 20 7 11 1012.5 1012.4 4.6
26/09:30pm 17.5 17.3 17.5 100 0.0 ESE 15 20 8 11 1012.9 1012.8 4.4
26/09:00pm 17.4 18.2 17.2 99 0.1 ESE 9 13 5 7 1014.3 1014.2 4.0
26/08:30pm 17.4 18.6 16.8 96 0.4 ENE 6 9 3 5 1014.4 1014.3 3.4
26/08:00pm 18.0 18.0 16.2 89 1.1 SW 11 17 6 9 1014.0 1013.9 3.4
26/07:30pm 18.2 17.3 16.9 92 0.8 SW 17 22 9 12 1014.2 1014.1 3.4
26/07:00pm 18.6 17.4 17.1 91 0.9 WSW 19 26 10 14 1014.4 1014.3 2.6
26/06:30pm 19.0 18.7 17.3 90 1.0 SW 15 22 8 12 1013.9 1013.8 2.0
26/06:00pm 20.0 20.8 17.4 85 1.6 SW 9 15 5 8 1013.4 1013.3 1.0
26/05:30pm 21.1 22.0 16.5 75 2.8 NNW 7 9 4 5 1012.3 1012.2 0.4
26/05:00pm 21.7 21.2 16.0 70 3.4 SSE 13 20 7 11 1010.6 1010.4 0.4
26/04:30pm 22.1 22.0 15.9 68 3.7 S 11 17 6 9 1011.0 1010.8 0.4
26/04:00pm 22.0 22.3 16.1 69 3.6 ESE 9 17 5 9 1011.4 1011.2 0.4
26/03:30pm 21.1 19.9 17.1 78 2.5 SE 19 22 10 12 1011.4 1011.2 0.4
26/03:00pm 23.2 23.0 14.7 58 5.1 WSW 9 11 5 6 1013.0 1012.9 0.0
26/02:30pm 24.7 24.7 15.1 55 5.8 W 9 13 5 7 1013.3 1013.2 0.0
26/02:00pm 24.6 24.4 14.7 54 5.9 WSW 9 15 5 8 1013.2 1013.1 0.0
26/01:30pm 25.3 26.4 13.5 48 6.9 CALM 0 0 0 0 1013.1 1013.0 0.0
26/01:00pm 25.0 24.4 13.5 48 6.8 E 9 15 5 8 1012.9 1012.8 0.0
26/12:30pm 23.8 23.6 13.6 52 6.0 E 7 9 4 5 1013.2 1013.1 0.0
26/12:00pm 23.3 22.5 12.9 52 6.0 SE 9 13 5 7 1013.1 1013.0 0.0
26/11:30am 23.3 21.6 12.6 51 6.1 ESE 13 20 7 11 1013.2 1013.1 0.0
26/11:00am 23.7 22.6 12.0 48 6.7 E 9 19 5 10 1013.5 1013.4 0.0
26/10:30am 22.4 19.9 11.2 49 6.2 E 15 24 8 13 1014.0 1013.9 0.0

Other Formats:

Comma delimited format used in spreadsheet applications
http://www.bom.gov.au/fwo/IDW60801/IDW60801.95641.axf

JavaScript Object Notation format (JSON) in row-major order
http://www.bom.gov.au/fwo/IDW60801/IDW60801.95641.json